sensor_id;sensor_type;location;lat;lon;timestamp;P1;durP1;ratioP1;P2;durP2;ratioP2
10934;SDS011;5520;45.752;4.874;2023-02-28T00:01:07;5.50;;;4.00;;
10934;SDS011;5520;45.752;4.874;2023-02-28T00:03:35;4.00;;;3.70;;
10934;SDS011;5520;45.752;4.874;2023-02-28T00:06:04;5.03;;;4.10;;
10934;SDS011;5520;45.752;4.874;2023-02-28T00:08:33;4.80;;;3.73;;
10934;SDS011;5520;45.752;4.874;2023-02-28T00:11:02;8.13;;;4.07;;
10934;SDS011;5520;45.752;4.874;2023-02-28T00:13:30;5.67;;;4.30;;
10934;SDS011;5520;45.752;4.874;2023-02-28T00:15:59;4.70;;;4.00;;
10934;SDS011;5520;45.752;4.874;2023-02-28T00:18:27;4.47;;;4.07;;
10934;SDS011;5520;45.752;4.874;2023-02-28T00:20:57;4.27;;;3.60;;
10934;SDS011;5520;45.752;4.874;2023-02-28T00:23:25;5.73;;;4.13;;
10934;SDS011;5520;45.752;4.874;2023-02-28T00:25:54;4.40;;;4.00;;
10934;SDS011;5520;45.752;4.874;2023-02-28T00:28:22;4.40;;;4.00;;
10934;SDS011;5520;45.752;4.874;2023-02-28T00:30:50;6.83;;;4.33;;
10934;SDS011;5520;45.752;4.874;2023-02-28T00:33:18;3.97;;;3.63;;
10934;SDS011;5520;45.752;4.874;2023-02-28T00:35:46;6.73;;;5.00;;
10934;SDS011;5520;45.752;4.874;2023-02-28T00:38:15;5.10;;;4.40;;
10934;SDS011;5520;45.752;4.874;2023-02-28T00:40:43;5.10;;;4.10;;
10934;SDS011;5520;45.752;4.874;2023-02-28T00:43:13;4.27;;;3.87;;
10934;SDS011;5520;45.752;4.874;2023-02-28T00:45:41;4.50;;;4.10;;
10934;SDS011;5520;45.752;4.874;2023-02-28T00:48:09;5.27;;;3.90;;
10934;SDS011;5520;45.752;4.874;2023-02-28T00:50:36;4.90;;;4.10;;
10934;SDS011;5520;45.752;4.874;2023-02-28T00:53:04;5.07;;;4.10;;
10934;SDS011;5520;45.752;4.874;2023-02-28T00:55:32;5.00;;;4.60;;
10934;SDS011;5520;45.752;4.874;2023-02-28T00:58:00;4.27;;;3.93;;
10934;SDS011;5520;45.752;4.874;2023-02-28T01:00:30;3.40;;;3.20;;
10934;SDS011;5520;45.752;4.874;2023-02-28T01:02:58;4.10;;;3.70;;
10934;SDS011;5520;45.752;4.874;2023-02-28T01:05:26;4.30;;;3.90;;
10934;SDS011;5520;45.752;4.874;2023-02-28T01:07:54;4.57;;;3.90;;
10934;SDS011;5520;45.752;4.874;2023-02-28T01:10:22;6.30;;;4.60;;
10934;SDS011;5520;45.752;4.874;2023-02-28T01:12:50;4.43;;;4.07;;
10934;SDS011;5520;45.752;4.874;2023-02-28T01:15:18;4.53;;;3.93;;
10934;SDS011;5520;45.752;4.874;2023-02-28T01:17:47;4.00;;;3.70;;
10934;SDS011;5520;45.752;4.874;2023-02-28T01:20:15;3.87;;;3.57;;
10934;SDS011;5520;45.752;4.874;2023-02-28T01:22:43;4.23;;;3.83;;
10934;SDS011;5520;45.752;4.874;2023-02-28T01:25:11;5.03;;;3.67;;
10934;SDS011;5520;45.752;4.874;2023-02-28T01:27:39;4.43;;;4.03;;
10934;SDS011;5520;45.752;4.874;2023-02-28T01:30:08;4.20;;;3.80;;
10934;SDS011;5520;45.752;4.874;2023-02-28T01:32:36;4.07;;;3.67;;
10934;SDS011;5520;45.752;4.874;2023-02-28T01:35:06;5.00;;;4.40;;
10934;SDS011;5520;45.752;4.874;2023-02-28T01:37:34;4.50;;;3.73;;
10934;SDS011;5520;45.752;4.874;2023-02-28T01:40:02;5.03;;;4.23;;
10934;SDS011;5520;45.752;4.874;2023-02-28T01:42:31;5.27;;;3.70;;
10934;SDS011;5520;45.752;4.874;2023-02-28T01:45:00;7.50;;;3.90;;
10934;SDS011;5520;45.752;4.874;2023-02-28T01:47:30;5.17;;;4.67;;
10934;SDS011;5520;45.752;4.874;2023-02-28T01:49:59;4.50;;;4.03;;
10934;SDS011;5520;45.752;4.874;2023-02-28T01:52:30;4.73;;;3.80;;
10934;SDS011;5520;45.752;4.874;2023-02-28T01:54:58;3.73;;;3.43;;
10934;SDS011;5520;45.752;4.874;2023-02-28T01:57:28;4.03;;;3.63;;
10934;SDS011;5520;45.752;4.874;2023-02-28T01:59:58;3.77;;;3.47;;
10934;SDS011;5520;45.752;4.874;2023-02-28T02:02:27;4.33;;;4.03;;
10934;SDS011;5520;45.752;4.874;2023-02-28T02:04:57;4.70;;;3.97;;
10934;SDS011;5520;45.752;4.874;2023-02-28T02:07:30;4.13;;;3.73;;
10934;SDS011;5520;45.752;4.874;2023-02-28T02:10:00;4.10;;;3.67;;
10934;SDS011;5520;45.752;4.874;2023-02-28T02:12:31;4.83;;;3.73;;
10934;SDS011;5520;45.752;4.874;2023-02-28T02:15:03;4.03;;;3.73;;
10934;SDS011;5520;45.752;4.874;2023-02-28T02:17:34;4.67;;;3.67;;
10934;SDS011;5520;45.752;4.874;2023-02-28T02:20:11;4.13;;;3.70;;
10934;SDS011;5520;45.752;4.874;2023-02-28T02:22:52;3.97;;;3.53;;
10934;SDS011;5520;45.752;4.874;2023-02-28T02:25:28;3.20;;;2.97;;
10934;SDS011;5520;45.752;4.874;2023-02-28T02:28:04;4.33;;;3.93;;
10934;SDS011;5520;45.752;4.874;2023-02-28T02:30:49;3.70;;;3.43;;
10934;SDS011;5520;45.752;4.874;2023-02-28T02:36:23;4.07;;;3.67;;
10934;SDS011;5520;45.752;4.874;2023-02-28T02:38:53;3.37;;;3.10;;
10934;SDS011;5520;45.752;4.874;2023-02-28T02:41:23;4.07;;;3.70;;
10934;SDS011;5520;45.752;4.874;2023-02-28T02:43:54;3.20;;;2.90;;
10934;SDS011;5520;45.752;4.874;2023-02-28T02:46:26;4.40;;;3.47;;
10934;SDS011;5520;45.752;4.874;2023-02-28T02:48:57;5.60;;;3.03;;
10934;SDS011;5520;45.752;4.874;2023-02-28T02:51:28;3.50;;;3.10;;
10934;SDS011;5520;45.752;4.874;2023-02-28T02:53:59;6.53;;;3.10;;
10934;SDS011;5520;45.752;4.874;2023-02-28T02:56:28;4.67;;;3.00;;
10934;SDS011;5520;45.752;4.874;2023-02-28T02:58:58;2.80;;;2.60;;
10934;SDS011;5520;45.752;4.874;2023-02-28T03:01:28;3.63;;;3.30;;
10934;SDS011;5520;45.752;4.874;2023-02-28T03:03:58;3.30;;;3.00;;
10934;SDS011;5520;45.752;4.874;2023-02-28T03:06:28;3.83;;;2.97;;
10934;SDS011;5520;45.752;4.874;2023-02-28T03:08:56;4.03;;;3.57;;
10934;SDS011;5520;45.752;4.874;2023-02-28T03:11:24;3.60;;;3.30;;
10934;SDS011;5520;45.752;4.874;2023-02-28T03:14:03;4.13;;;3.73;;
10934;SDS011;5520;45.752;4.874;2023-02-28T03:16:39;3.83;;;3.20;;
10934;SDS011;5520;45.752;4.874;2023-02-28T03:19:24;4.17;;;3.20;;
10934;SDS011;5520;45.752;4.874;2023-02-28T03:21:59;4.43;;;3.23;;
10934;SDS011;5520;45.752;4.874;2023-02-28T03:24:31;3.50;;;3.20;;
10934;SDS011;5520;45.752;4.874;2023-02-28T03:27:03;3.23;;;3.00;;
10934;SDS011;5520;45.752;4.874;2023-02-28T03:29:33;3.87;;;2.93;;
10934;SDS011;5520;45.752;4.874;2023-02-28T03:32:03;3.37;;;3.07;;
10934;SDS011;5520;45.752;4.874;2023-02-28T03:34:32;4.47;;;3.33;;
10934;SDS011;5520;45.752;4.874;2023-02-28T03:37:04;3.23;;;2.93;;
10934;SDS011;5520;45.752;4.874;2023-02-28T03:39:36;3.53;;;2.97;;
10934;SDS011;5520;45.752;4.874;2023-02-28T03:42:05;3.30;;;2.80;;
10934;SDS011;5520;45.752;4.874;2023-02-28T03:44:35;3.37;;;3.00;;
10934;SDS011;5520;45.752;4.874;2023-02-28T03:47:07;3.77;;;3.33;;
10934;SDS011;5520;45.752;4.874;2023-02-28T03:49:36;3.63;;;3.20;;
10934;SDS011;5520;45.752;4.874;2023-02-28T03:52:11;3.47;;;2.83;;
10934;SDS011;5520;45.752;4.874;2023-02-28T03:54:41;3.57;;;3.10;;
10934;SDS011;5520;45.752;4.874;2023-02-28T03:57:11;2.90;;;2.70;;
10934;SDS011;5520;45.752;4.874;2023-02-28T03:59:42;4.83;;;3.60;;
10934;SDS011;5520;45.752;4.874;2023-02-28T04:02:11;8.43;;;3.17;;
10934;SDS011;5520;45.752;4.874;2023-02-28T04:04:39;3.83;;;3.10;;
10934;SDS011;5520;45.752;4.874;2023-02-28T04:07:16;3.53;;;2.70;;
10934;SDS011;5520;45.752;4.874;2023-02-28T04:09:45;4.83;;;3.40;;
10934;SDS011;5520;45.752;4.874;2023-02-28T04:12:13;5.77;;;3.17;;
10934;SDS011;5520;45.752;4.874;2023-02-28T04:14:40;3.20;;;2.90;;
10934;SDS011;5520;45.752;4.874;2023-02-28T04:17:08;3.83;;;3.17;;
10934;SDS011;5520;45.752;4.874;2023-02-28T04:19:36;4.00;;;3.60;;
10934;SDS011;5520;45.752;4.874;2023-02-28T04:22:04;3.57;;;2.93;;
10934;SDS011;5520;45.752;4.874;2023-02-28T04:24:34;3.13;;;2.73;;
10934;SDS011;5520;45.752;4.874;2023-02-28T04:27:02;4.23;;;3.10;;
10934;SDS011;5520;45.752;4.874;2023-02-28T04:29:31;3.77;;;3.20;;
10934;SDS011;5520;45.752;4.874;2023-02-28T04:31:59;4.17;;;3.17;;
10934;SDS011;5520;45.752;4.874;2023-02-28T04:34:29;3.40;;;3.10;;
10934;SDS011;5520;45.752;4.874;2023-02-28T04:36:57;3.30;;;3.00;;
10934;SDS011;5520;45.752;4.874;2023-02-28T04:39:43;3.23;;;2.90;;
10934;SDS011;5520;45.752;4.874;2023-02-28T04:42:12;3.53;;;2.87;;
10934;SDS011;5520;45.752;4.874;2023-02-28T04:44:40;6.63;;;3.10;;
10934;SDS011;5520;45.752;4.874;2023-02-28T04:47:08;3.17;;;2.87;;
10934;SDS011;5520;45.752;4.874;2023-02-28T04:49:36;3.30;;;2.97;;
10934;SDS011;5520;45.752;4.874;2023-02-28T04:52:04;3.93;;;2.90;;
10934;SDS011;5520;45.752;4.874;2023-02-28T04:54:34;5.73;;;2.60;;
10934;SDS011;5520;45.752;4.874;2023-02-28T04:57:03;3.33;;;3.07;;
10934;SDS011;5520;45.752;4.874;2023-02-28T04:59:31;6.43;;;2.90;;
10934;SDS011;5520;45.752;4.874;2023-02-28T05:01:59;2.67;;;2.20;;
10934;SDS011;5520;45.752;4.874;2023-02-28T05:04:30;2.93;;;2.70;;
10934;SDS011;5520;45.752;4.874;2023-02-28T05:07:00;3.20;;;2.90;;
10934;SDS011;5520;45.752;4.874;2023-02-28T05:09:29;2.90;;;2.57;;
10934;SDS011;5520;45.752;4.874;2023-02-28T05:11:59;3.23;;;2.70;;
10934;SDS011;5520;45.752;4.874;2023-02-28T05:14:28;3.53;;;2.80;;
10934;SDS011;5520;45.752;4.874;2023-02-28T05:16:56;4.00;;;3.17;;
10934;SDS011;5520;45.752;4.874;2023-02-28T05:19:24;4.00;;;3.23;;
10934;SDS011;5520;45.752;4.874;2023-02-28T05:21:53;2.97;;;2.73;;
10934;SDS011;5520;45.752;4.874;2023-02-28T05:24:21;3.07;;;2.87;;
10934;SDS011;5520;45.752;4.874;2023-02-28T05:26:50;2.83;;;2.63;;
10934;SDS011;5520;45.752;4.874;2023-02-28T05:29:19;4.27;;;3.10;;
10934;SDS011;5520;45.752;4.874;2023-02-28T05:31:48;4.73;;;3.17;;
10934;SDS011;5520;45.752;4.874;2023-02-28T05:34:16;3.33;;;3.03;;
10934;SDS011;5520;45.752;4.874;2023-02-28T05:36:45;3.33;;;3.00;;
10934;SDS011;5520;45.752;4.874;2023-02-28T05:39:13;4.23;;;3.10;;
10934;SDS011;5520;45.752;4.874;2023-02-28T05:41:41;4.53;;;2.70;;
10934;SDS011;5520;45.752;4.874;2023-02-28T05:44:09;3.90;;;2.73;;
10934;SDS011;5520;45.752;4.874;2023-02-28T05:46:37;2.80;;;2.60;;
10934;SDS011;5520;45.752;4.874;2023-02-28T05:49:07;3.60;;;3.03;;
10934;SDS011;5520;45.752;4.874;2023-02-28T05:51:35;4.13;;;2.80;;
10934;SDS011;5520;45.752;4.874;2023-02-28T05:54:06;4.07;;;3.67;;
10934;SDS011;5520;45.752;4.874;2023-02-28T05:56:34;2.67;;;2.47;;
10934;SDS011;5520;45.752;4.874;2023-02-28T05:59:05;6.67;;;3.27;;
10934;SDS011;5520;45.752;4.874;2023-02-28T06:01:34;4.70;;;3.37;;
10934;SDS011;5520;45.752;4.874;2023-02-28T06:04:03;3.60;;;3.20;;
10934;SDS011;5520;45.752;4.874;2023-02-28T06:06:33;2.93;;;2.73;;
10934;SDS011;5520;45.752;4.874;2023-02-28T06:09:02;2.93;;;2.70;;
10934;SDS011;5520;45.752;4.874;2023-02-28T06:11:31;5.37;;;2.87;;
10934;SDS011;5520;45.752;4.874;2023-02-28T06:13:59;4.73;;;3.40;;
10934;SDS011;5520;45.752;4.874;2023-02-28T06:16:28;4.03;;;2.80;;
10934;SDS011;5520;45.752;4.874;2023-02-28T06:18:56;3.53;;;2.67;;
10934;SDS011;5520;45.752;4.874;2023-02-28T06:21:25;3.87;;;3.57;;
10934;SDS011;5520;45.752;4.874;2023-02-28T06:23:57;3.80;;;3.50;;
10934;SDS011;5520;45.752;4.874;2023-02-28T06:26:25;4.90;;;3.63;;
10934;SDS011;5520;45.752;4.874;2023-02-28T06:28:53;3.50;;;3.20;;
10934;SDS011;5520;45.752;4.874;2023-02-28T06:31:21;4.97;;;3.17;;
10934;SDS011;5520;45.752;4.874;2023-02-28T06:33:51;3.53;;;2.90;;
10934;SDS011;5520;45.752;4.874;2023-02-28T06:36:19;3.53;;;3.23;;
10934;SDS011;5520;45.752;4.874;2023-02-28T06:38:47;4.47;;;3.07;;
10934;SDS011;5520;45.752;4.874;2023-02-28T06:41:19;3.10;;;2.60;;
10934;SDS011;5520;45.752;4.874;2023-02-28T06:43:47;4.37;;;2.93;;
10934;SDS011;5520;45.752;4.874;2023-02-28T06:46:15;7.40;;;3.40;;
10934;SDS011;5520;45.752;4.874;2023-02-28T06:48:43;3.20;;;2.97;;
10934;SDS011;5520;45.752;4.874;2023-02-28T06:51:12;2.73;;;2.53;;
10934;SDS011;5520;45.752;4.874;2023-02-28T06:53:41;7.60;;;4.87;;
10934;SDS011;5520;45.752;4.874;2023-02-28T06:56:09;7.53;;;3.70;;
10934;SDS011;5520;45.752;4.874;2023-02-28T06:58:39;5.27;;;4.13;;
10934;SDS011;5520;45.752;4.874;2023-02-28T07:01:07;3.33;;;3.03;;
10934;SDS011;5520;45.752;4.874;2023-02-28T07:03:36;4.83;;;3.10;;
10934;SDS011;5520;45.752;4.874;2023-02-28T07:06:04;2.70;;;2.50;;
10934;SDS011;5520;45.752;4.874;2023-02-28T07:08:33;5.27;;;3.40;;
10934;SDS011;5520;45.752;4.874;2023-02-28T07:11:01;4.03;;;2.77;;
10934;SDS011;5520;45.752;4.874;2023-02-28T07:13:29;10.20;;;3.70;;
10934;SDS011;5520;45.752;4.874;2023-02-28T07:15:58;6.20;;;3.17;;
10934;SDS011;5520;45.752;4.874;2023-02-28T07:18:27;3.93;;;2.70;;
10934;SDS011;5520;45.752;4.874;2023-02-28T07:20:55;3.90;;;3.50;;
10934;SDS011;5520;45.752;4.874;2023-02-28T07:23:23;3.53;;;2.73;;
10934;SDS011;5520;45.752;4.874;2023-02-28T07:25:51;7.90;;;2.67;;
10934;SDS011;5520;45.752;4.874;2023-02-28T07:28:20;3.53;;;2.97;;
10934;SDS011;5520;45.752;4.874;2023-02-28T07:30:48;4.23;;;2.93;;
10934;SDS011;5520;45.752;4.874;2023-02-28T07:33:20;4.27;;;3.03;;
10934;SDS011;5520;45.752;4.874;2023-02-28T07:35:49;7.77;;;3.07;;
10934;SDS011;5520;45.752;4.874;2023-02-28T07:38:17;4.53;;;2.50;;
10934;SDS011;5520;45.752;4.874;2023-02-28T07:40:45;3.10;;;2.80;;
10934;SDS011;5520;45.752;4.874;2023-02-28T07:43:16;6.67;;;3.33;;
10934;SDS011;5520;45.752;4.874;2023-02-28T07:45:44;4.37;;;3.10;;
10934;SDS011;5520;45.752;4.874;2023-02-28T07:48:12;4.17;;;2.83;;
10934;SDS011;5520;45.752;4.874;2023-02-28T07:50:42;4.20;;;3.17;;
10934;SDS011;5520;45.752;4.874;2023-02-28T07:53:10;7.73;;;3.77;;
10934;SDS011;5520;45.752;4.874;2023-02-28T07:55:38;5.30;;;3.60;;
10934;SDS011;5520;45.752;4.874;2023-02-28T07:58:06;5.83;;;3.90;;
10934;SDS011;5520;45.752;4.874;2023-02-28T08:00:34;6.63;;;3.90;;
10934;SDS011;5520;45.752;4.874;2023-02-28T08:03:02;5.33;;;2.97;;
10934;SDS011;5520;45.752;4.874;2023-02-28T08:05:30;5.00;;;4.10;;
10934;SDS011;5520;45.752;4.874;2023-02-28T08:07:59;5.90;;;3.33;;
10934;SDS011;5520;45.752;4.874;2023-02-28T08:10:27;4.50;;;3.90;;
10934;SDS011;5520;45.752;4.874;2023-02-28T08:12:55;4.90;;;4.40;;
10934;SDS011;5520;45.752;4.874;2023-02-28T08:15:23;4.33;;;3.87;;
10934;SDS011;5520;45.752;4.874;2023-02-28T08:17:51;9.73;;;5.43;;
10934;SDS011;5520;45.752;4.874;2023-02-28T08:20:19;5.10;;;3.87;;
10934;SDS011;5520;45.752;4.874;2023-02-28T08:22:47;4.87;;;3.23;;
10934;SDS011;5520;45.752;4.874;2023-02-28T08:25:17;5.17;;;3.50;;
10934;SDS011;5520;45.752;4.874;2023-02-28T08:27:45;5.10;;;3.67;;
10934;SDS011;5520;45.752;4.874;2023-02-28T08:30:13;3.67;;;3.07;;
10934;SDS011;5520;45.752;4.874;2023-02-28T08:32:42;3.43;;;2.57;;
10934;SDS011;5520;45.752;4.874;2023-02-28T08:35:10;2.63;;;2.43;;
10934;SDS011;5520;45.752;4.874;2023-02-28T08:37:38;5.00;;;2.87;;
10934;SDS011;5520;45.752;4.874;2023-02-28T08:40:07;4.70;;;3.17;;
10934;SDS011;5520;45.752;4.874;2023-02-28T08:42:36;5.30;;;3.47;;
10934;SDS011;5520;45.752;4.874;2023-02-28T08:45:05;3.80;;;2.90;;
10934;SDS011;5520;45.752;4.874;2023-02-28T08:47:33;5.20;;;2.80;;
10934;SDS011;5520;45.752;4.874;2023-02-28T08:50:01;3.87;;;2.73;;
10934;SDS011;5520;45.752;4.874;2023-02-28T08:52:29;3.70;;;3.03;;
10934;SDS011;5520;45.752;4.874;2023-02-28T08:54:57;3.43;;;3.13;;
10934;SDS011;5520;45.752;4.874;2023-02-28T08:57:25;2.77;;;2.50;;
10934;SDS011;5520;45.752;4.874;2023-02-28T08:59:55;3.07;;;2.83;;
10934;SDS011;5520;45.752;4.874;2023-02-28T09:02:23;3.40;;;2.70;;
10934;SDS011;5520;45.752;4.874;2023-02-28T09:04:51;7.07;;;3.40;;
10934;SDS011;5520;45.752;4.874;2023-02-28T09:07:19;3.50;;;2.77;;
10934;SDS011;5520;45.752;4.874;2023-02-28T09:09:47;4.30;;;2.83;;
10934;SDS011;5520;45.752;4.874;2023-02-28T09:12:21;3.97;;;2.77;;
10934;SDS011;5520;45.752;4.874;2023-02-28T09:14:49;2.70;;;2.50;;
10934;SDS011;5520;45.752;4.874;2023-02-28T09:17:19;2.90;;;2.60;;
10934;SDS011;5520;45.752;4.874;2023-02-28T09:19:47;3.63;;;3.10;;
10934;SDS011;5520;45.752;4.874;2023-02-28T09:22:15;10.53;;;3.20;;
10934;SDS011;5520;45.752;4.874;2023-02-28T09:24:43;2.97;;;2.57;;
10934;SDS011;5520;45.752;4.874;2023-02-28T09:27:12;2.93;;;2.73;;
10934;SDS011;5520;45.752;4.874;2023-02-28T09:29:40;5.03;;;2.60;;
10934;SDS011;5520;45.752;4.874;2023-02-28T09:32:08;3.43;;;3.13;;
10934;SDS011;5520;45.752;4.874;2023-02-28T09:34:37;4.93;;;3.53;;
10934;SDS011;5520;45.752;4.874;2023-02-28T09:37:05;4.33;;;3.40;;
10934;SDS011;5520;45.752;4.874;2023-02-28T09:39:33;3.20;;;2.90;;
10934;SDS011;5520;45.752;4.874;2023-02-28T09:42:01;3.70;;;2.80;;
10934;SDS011;5520;45.752;4.874;2023-02-28T09:44:30;3.00;;;2.80;;
10934;SDS011;5520;45.752;4.874;2023-02-28T09:47:00;3.20;;;3.00;;
10934;SDS011;5520;45.752;4.874;2023-02-28T09:49:33;3.43;;;3.20;;
10934;SDS011;5520;45.752;4.874;2023-02-28T09:52:04;3.10;;;2.80;;
10934;SDS011;5520;45.752;4.874;2023-02-28T09:54:35;4.47;;;3.37;;
10934;SDS011;5520;45.752;4.874;2023-02-28T09:57:06;4.07;;;3.00;;
10934;SDS011;5520;45.752;4.874;2023-02-28T09:59:39;5.37;;;3.53;;
10934;SDS011;5520;45.752;4.874;2023-02-28T10:02:13;5.43;;;3.13;;
10934;SDS011;5520;45.752;4.874;2023-02-28T10:04:46;3.93;;;3.37;;
10934;SDS011;5520;45.752;4.874;2023-02-28T10:07:22;3.60;;;3.30;;
10934;SDS011;5520;45.752;4.874;2023-02-28T10:09:52;4.00;;;3.30;;
10934;SDS011;5520;45.752;4.874;2023-02-28T10:12:21;3.47;;;3.20;;
10934;SDS011;5520;45.752;4.874;2023-02-28T10:14:50;4.70;;;3.60;;
10934;SDS011;5520;45.752;4.874;2023-02-28T10:17:19;11.30;;;4.13;;
10934;SDS011;5520;45.752;4.874;2023-02-28T10:19:52;6.00;;;3.47;;
10934;SDS011;5520;45.752;4.874;2023-02-28T10:22:24;3.70;;;3.37;;
10934;SDS011;5520;45.752;4.874;2023-02-28T10:24:54;4.53;;;3.40;;
10934;SDS011;5520;45.752;4.874;2023-02-28T10:27:23;4.03;;;3.50;;
10934;SDS011;5520;45.752;4.874;2023-02-28T10:29:52;3.93;;;3.60;;
10934;SDS011;5520;45.752;4.874;2023-02-28T10:32:23;4.33;;;3.93;;
10934;SDS011;5520;45.752;4.874;2023-02-28T10:34:51;5.87;;;3.70;;
10934;SDS011;5520;45.752;4.874;2023-02-28T10:37:22;4.50;;;3.37;;
10934;SDS011;5520;45.752;4.874;2023-02-28T10:39:50;9.00;;;4.37;;
10934;SDS011;5520;45.752;4.874;2023-02-28T10:42:20;3.90;;;3.30;;
10934;SDS011;5520;45.752;4.874;2023-02-28T10:44:48;4.80;;;4.03;;
10934;SDS011;5520;45.752;4.874;2023-02-28T10:47:16;5.10;;;3.80;;
10934;SDS011;5520;45.752;4.874;2023-02-28T10:49:48;7.73;;;3.87;;
10934;SDS011;5520;45.752;4.874;2023-02-28T10:55:15;3.93;;;3.37;;
10934;SDS011;5520;45.752;4.874;2023-02-28T10:57:44;5.03;;;4.10;;
10934;SDS011;5520;45.752;4.874;2023-02-28T11:00:13;4.03;;;3.63;;
10934;SDS011;5520;45.752;4.874;2023-02-28T11:02:42;6.33;;;4.30;;
10934;SDS011;5520;45.752;4.874;2023-02-28T11:07:54;5.90;;;4.30;;
10934;SDS011;5520;45.752;4.874;2023-02-28T11:10:25;6.03;;;4.33;;
10934;SDS011;5520;45.752;4.874;2023-02-28T11:12:54;4.50;;;4.10;;
10934;SDS011;5520;45.752;4.874;2023-02-28T11:15:26;3.83;;;3.43;;
10934;SDS011;5520;45.752;4.874;2023-02-28T11:17:55;4.90;;;4.27;;
10934;SDS011;5520;45.752;4.874;2023-02-28T11:20:25;4.50;;;3.67;;
10934;SDS011;5520;45.752;4.874;2023-02-28T11:22:53;4.17;;;3.77;;
10934;SDS011;5520;45.752;4.874;2023-02-28T11:25:24;4.10;;;3.70;;
10934;SDS011;5520;45.752;4.874;2023-02-28T11:27:54;7.00;;;4.17;;
10934;SDS011;5520;45.752;4.874;2023-02-28T11:30:31;6.90;;;4.33;;
10934;SDS011;5520;45.752;4.874;2023-02-28T11:33:00;6.07;;;3.90;;
10934;SDS011;5520;45.752;4.874;2023-02-28T11:35:30;4.10;;;3.70;;
10934;SDS011;5520;45.752;4.874;2023-02-28T11:37:59;4.97;;;4.53;;
10934;SDS011;5520;45.752;4.874;2023-02-28T11:40:30;5.53;;;4.10;;
10934;SDS011;5520;45.752;4.874;2023-02-28T11:43:06;9.40;;;4.43;;
10934;SDS011;5520;45.752;4.874;2023-02-28T11:45:44;5.60;;;4.77;;
10934;SDS011;5520;45.752;4.874;2023-02-28T11:48:15;4.77;;;4.37;;
10934;SDS011;5520;45.752;4.874;2023-02-28T11:50:47;4.27;;;3.70;;
10934;SDS011;5520;45.752;4.874;2023-02-28T11:53:20;5.57;;;4.20;;
10934;SDS011;5520;45.752;4.874;2023-02-28T11:55:51;6.10;;;4.37;;
10934;SDS011;5520;45.752;4.874;2023-02-28T11:58:29;4.90;;;4.40;;
10934;SDS011;5520;45.752;4.874;2023-02-28T12:01:06;5.57;;;4.17;;
10934;SDS011;5520;45.752;4.874;2023-02-28T12:03:39;4.67;;;3.80;;
10934;SDS011;5520;45.752;4.874;2023-02-28T12:06:16;4.50;;;4.10;;
10934;SDS011;5520;45.752;4.874;2023-02-28T12:08:55;7.27;;;4.57;;
10934;SDS011;5520;45.752;4.874;2023-02-28T12:11:29;4.67;;;4.27;;
10934;SDS011;5520;45.752;4.874;2023-02-28T12:14:03;7.33;;;4.73;;
10934;SDS011;5520;45.752;4.874;2023-02-28T12:16:39;7.20;;;4.57;;
10934;SDS011;5520;45.752;4.874;2023-02-28T12:19:16;5.43;;;4.40;;
10934;SDS011;5520;45.752;4.874;2023-02-28T12:21:59;4.67;;;3.80;;
10934;SDS011;5520;45.752;4.874;2023-02-28T12:24:32;4.13;;;3.73;;
10934;SDS011;5520;45.752;4.874;2023-02-28T12:27:05;7.33;;;4.23;;
10934;SDS011;5520;45.752;4.874;2023-02-28T12:29:38;6.00;;;4.00;;
10934;SDS011;5520;45.752;4.874;2023-02-28T12:32:09;7.20;;;4.63;;
10934;SDS011;5520;45.752;4.874;2023-02-28T12:34:39;4.70;;;4.30;;
10934;SDS011;5520;45.752;4.874;2023-02-28T12:37:10;5.87;;;4.70;;
10934;SDS011;5520;45.752;4.874;2023-02-28T12:39:41;6.53;;;4.70;;
10934;SDS011;5520;45.752;4.874;2023-02-28T12:42:17;7.40;;;4.40;;
10934;SDS011;5520;45.752;4.874;2023-02-28T12:44:49;6.50;;;4.50;;
10934;SDS011;5520;45.752;4.874;2023-02-28T12:47:18;5.10;;;4.53;;
10934;SDS011;5520;45.752;4.874;2023-02-28T12:49:48;4.77;;;4.37;;
10934;SDS011;5520;45.752;4.874;2023-02-28T12:52:19;6.73;;;5.00;;
10934;SDS011;5520;45.752;4.874;2023-02-28T12:54:51;5.07;;;4.40;;
10934;SDS011;5520;45.752;4.874;2023-02-28T12:57:27;7.50;;;4.80;;
10934;SDS011;5520;45.752;4.874;2023-02-28T12:59:57;5.23;;;4.67;;
10934;SDS011;5520;45.752;4.874;2023-02-28T13:05:28;5.03;;;4.53;;
10934;SDS011;5520;45.752;4.874;2023-02-28T13:10:58;6.53;;;4.70;;
10934;SDS011;5520;45.752;4.874;2023-02-28T13:13:29;7.00;;;5.53;;
10934;SDS011;5520;45.752;4.874;2023-02-28T13:16:03;5.57;;;4.90;;
10934;SDS011;5520;45.752;4.874;2023-02-28T13:18:34;5.77;;;4.80;;
10934;SDS011;5520;45.752;4.874;2023-02-28T13:21:04;6.00;;;4.67;;
10934;SDS011;5520;45.752;4.874;2023-02-28T13:23:37;4.37;;;3.97;;
10934;SDS011;5520;45.752;4.874;2023-02-28T13:26:06;7.10;;;4.63;;
10934;SDS011;5520;45.752;4.874;2023-02-28T13:34:36;6.03;;;4.80;;
10934;SDS011;5520;45.752;4.874;2023-02-28T13:39:48;5.20;;;4.70;;
10934;SDS011;5520;45.752;4.874;2023-02-28T13:42:23;6.87;;;5.20;;
10934;SDS011;5520;45.752;4.874;2023-02-28T13:47:38;8.53;;;5.13;;
10934;SDS011;5520;45.752;4.874;2023-02-28T13:50:22;5.47;;;4.97;;
10934;SDS011;5520;45.752;4.874;2023-02-28T13:52:54;5.67;;;4.73;;
10934;SDS011;5520;45.752;4.874;2023-02-28T13:55:26;6.50;;;4.83;;
10934;SDS011;5520;45.752;4.874;2023-02-28T14:00:49;6.27;;;5.10;;
10934;SDS011;5520;45.752;4.874;2023-02-28T14:03:23;6.60;;;4.93;;
10934;SDS011;5520;45.752;4.874;2023-02-28T14:08:50;7.17;;;5.17;;
10934;SDS011;5520;45.752;4.874;2023-02-28T14:11:25;7.10;;;5.13;;
10934;SDS011;5520;45.752;4.874;2023-02-28T14:13:53;6.90;;;5.50;;
10934;SDS011;5520;45.752;4.874;2023-02-28T14:16:21;7.13;;;5.17;;
10934;SDS011;5520;45.752;4.874;2023-02-28T14:18:51;6.60;;;5.20;;
10934;SDS011;5520;45.752;4.874;2023-02-28T14:21:23;6.10;;;5.53;;
10934;SDS011;5520;45.752;4.874;2023-02-28T14:29:33;7.50;;;5.40;;
10934;SDS011;5520;45.752;4.874;2023-02-28T14:32:03;7.73;;;5.60;;
10934;SDS011;5520;45.752;4.874;2023-02-28T14:34:38;8.97;;;5.57;;
10934;SDS011;5520;45.752;4.874;2023-02-28T14:37:11;8.37;;;6.03;;
10934;SDS011;5520;45.752;4.874;2023-02-28T14:39:41;7.37;;;5.80;;
10934;SDS011;5520;45.752;4.874;2023-02-28T14:42:27;5.30;;;4.90;;
10934;SDS011;5520;45.752;4.874;2023-02-28T14:44:57;6.80;;;5.67;;
10934;SDS011;5520;45.752;4.874;2023-02-28T14:47:26;6.10;;;5.50;;
10934;SDS011;5520;45.752;4.874;2023-02-28T14:49:55;7.13;;;5.70;;
10934;SDS011;5520;45.752;4.874;2023-02-28T14:52:23;7.67;;;5.27;;
10934;SDS011;5520;45.752;4.874;2023-02-28T14:54:54;6.63;;;5.20;;
10934;SDS011;5520;45.752;4.874;2023-02-28T14:57:23;6.47;;;5.20;;
10934;SDS011;5520;45.752;4.874;2023-02-28T15:00:03;6.83;;;5.57;;
10934;SDS011;5520;45.752;4.874;2023-02-28T15:02:34;5.60;;;5.10;;
10934;SDS011;5520;45.752;4.874;2023-02-28T15:05:10;6.10;;;5.43;;
10934;SDS011;5520;45.752;4.874;2023-02-28T15:07:44;6.80;;;5.17;;
10934;SDS011;5520;45.752;4.874;2023-02-28T15:10:19;6.40;;;5.17;;
10934;SDS011;5520;45.752;4.874;2023-02-28T15:12:51;6.40;;;5.70;;
10934;SDS011;5520;45.752;4.874;2023-02-28T15:15:21;8.20;;;5.50;;
10934;SDS011;5520;45.752;4.874;2023-02-28T15:18:05;7.13;;;5.33;;
10934;SDS011;5520;45.752;4.874;2023-02-28T15:20:34;5.77;;;5.10;;
10934;SDS011;5520;45.752;4.874;2023-02-28T15:23:03;6.70;;;5.43;;
10934;SDS011;5520;45.752;4.874;2023-02-28T15:25:30;6.33;;;5.40;;
10934;SDS011;5520;45.752;4.874;2023-02-28T15:27:58;7.50;;;5.63;;
10934;SDS011;5520;45.752;4.874;2023-02-28T15:30:28;8.83;;;5.73;;
10934;SDS011;5520;45.752;4.874;2023-02-28T15:33:04;7.40;;;5.10;;
10934;SDS011;5520;45.752;4.874;2023-02-28T15:35:32;7.70;;;4.97;;
10934;SDS011;5520;45.752;4.874;2023-02-28T15:38:01;7.07;;;5.63;;
10934;SDS011;5520;45.752;4.874;2023-02-28T15:40:31;6.27;;;5.43;;
10934;SDS011;5520;45.752;4.874;2023-02-28T15:43:03;6.00;;;5.50;;
10934;SDS011;5520;45.752;4.874;2023-02-28T15:45:37;6.83;;;5.40;;
10934;SDS011;5520;45.752;4.874;2023-02-28T15:48:13;6.23;;;5.53;;
10934;SDS011;5520;45.752;4.874;2023-02-28T15:50:42;5.57;;;4.93;;
10934;SDS011;5520;45.752;4.874;2023-02-28T15:53:14;6.87;;;5.27;;
10934;SDS011;5520;45.752;4.874;2023-02-28T15:55:42;7.40;;;5.63;;